Abinsk, Russia
Current Conditions -  °F | °C
As of 3:00 PM on Wednesday 22 Oct 2014 (Local Time) from URKA Reporting Station
Scattered Clouds Scattered Clouds  
Wind Chill: 64°   Ceiling: Unl
Heat Index: 64°   Visibility: 6mi
Dew Point: 55°   Wind: 20mph
Humidity: 73%   Direction: 200°SSW
Pressure: 29.83"   Gusts: 27mph
Location:  44.87°N, 38.16°E
Report Text: URKA 221200Z 20009G12MPS 9999 FEW040 SCT110 18/13 Q1010 NOSIGRMK QFE752/1003 SC070
Loading
Personal Weather Stations






























Interactive Weather Map
Tropical Storm Tracking
New forecast layout! Learn more

10-Day Weather Forecast

Advertisements
Track Severe Weather on mobile